createdAt,value
2018-12-23T00:00:15.667Z,3.85
2018-12-23T00:02:44.448Z,2.92
2018-12-23T00:05:13.334Z,3.45
2018-12-23T00:07:42.129Z,2.55
2018-12-23T00:10:11.176Z,2.45
2018-12-23T00:12:40.187Z,2.65
2018-12-23T00:15:09.749Z,2.77
2018-12-23T00:17:38.732Z,4.37
2018-12-23T00:20:09.550Z,2.40
2018-12-23T00:22:38.484Z,2.45
2018-12-23T00:25:07.695Z,3.10
2018-12-23T00:27:36.601Z,4.45
2018-12-23T00:30:06.279Z,2.72
2018-12-23T00:32:35.209Z,2.77
2018-12-23T00:35:04.371Z,3.80
2018-12-23T00:37:33.431Z,2.72
2018-12-23T00:40:02.392Z,2.30
2018-12-23T00:42:31.173Z,3.25
2018-12-23T00:45:00.087Z,2.62
2018-12-23T00:47:29.915Z,2.80
2018-12-23T00:49:59.014Z,3.12
2018-12-23T00:52:28.096Z,3.52
2018-12-23T00:54:57.057Z,2.58
2018-12-23T00:57:26.057Z,2.52
2018-12-23T00:59:54.885Z,2.20
2018-12-23T01:02:24.008Z,2.87
2018-12-23T01:04:53.036Z,2.80
2018-12-23T01:07:21.959Z,2.40
2018-12-23T01:09:50.822Z,2.62
2018-12-23T01:12:19.413Z,2.22
2018-12-23T01:14:48.078Z,2.90
2018-12-23T01:17:16.824Z,2.37
2018-12-23T01:19:45.792Z,2.12
2018-12-23T01:22:14.671Z,2.55
2018-12-23T01:24:43.611Z,2.40
2018-12-23T01:27:12.475Z,2.62
2018-12-23T01:29:41.331Z,2.17
2018-12-23T01:32:10.304Z,2.30
2018-12-23T01:34:38.916Z,3.90
2018-12-23T01:37:07.646Z,1.87
2018-12-23T01:39:36.521Z,2.02
2018-12-23T01:42:05.144Z,1.90
2018-12-23T01:44:33.903Z,2.40
2018-12-23T01:47:03.039Z,2.70
2018-12-23T01:49:31.895Z,2.60
2018-12-23T01:52:00.677Z,2.05
2018-12-23T01:54:29.544Z,1.98
2018-12-23T01:56:58.245Z,2.35
2018-12-23T01:59:27.349Z,2.50
2018-12-23T02:01:56.617Z,2.42
2018-12-23T02:04:25.521Z,2.40
2018-12-23T02:06:54.548Z,2.52
2018-12-23T02:09:23.413Z,2.83
2018-12-23T02:11:52.445Z,2.22
2018-12-23T02:14:21.095Z,2.02
2018-12-23T02:16:49.952Z,3.33
2018-12-23T02:19:19.003Z,2.33
2018-12-23T02:21:47.763Z,1.70
2018-12-23T02:24:16.535Z,2.42
2018-12-23T02:26:45.232Z,1.90
2018-12-23T02:29:14.108Z,2.08
2018-12-23T02:31:42.852Z,1.95
2018-12-23T02:34:11.690Z,1.98
2018-12-23T02:36:40.342Z,2.50
2018-12-23T02:39:09.549Z,2.17
2018-12-23T02:41:38.141Z,2.50
2018-12-23T02:44:06.943Z,2.30
2018-12-23T02:46:35.873Z,2.75
2018-12-23T02:49:04.913Z,2.15
2018-12-23T02:51:33.574Z,2.12
2018-12-23T02:54:02.525Z,1.55
2018-12-23T02:56:31.455Z,2.30
2018-12-23T02:59:00.235Z,2.00
2018-12-23T03:01:28.912Z,2.12
2018-12-23T03:03:57.832Z,1.60
2018-12-23T03:06:26.801Z,2.12
2018-12-23T03:08:55.811Z,1.95
2018-12-23T03:11:24.484Z,1.95
2018-12-23T03:13:53.159Z,1.90
2018-12-23T03:16:22.506Z,1.75
2018-12-23T03:18:51.303Z,1.92
2018-12-23T03:21:20.313Z,2.62
2018-12-23T03:23:49.045Z,1.70
2018-12-23T03:26:17.759Z,2.08
2018-12-23T03:28:46.887Z,1.85
2018-12-23T03:31:15.643Z,2.35
2018-12-23T03:33:44.667Z,1.62
2018-12-23T03:36:15.258Z,2.20
2018-12-23T03:38:44.298Z,2.70
2018-12-23T03:41:13.086Z,1.77
2018-12-23T03:43:41.901Z,1.90
2018-12-23T03:46:10.742Z,2.08
2018-12-23T03:48:39.617Z,1.52
2018-12-23T03:51:08.521Z,1.62
2018-12-23T03:53:37.448Z,1.92
2018-12-23T03:56:06.161Z,1.92
2018-12-23T03:58:35.155Z,1.98
2018-12-23T04:01:04.496Z,1.60
2018-12-23T04:03:33.441Z,1.70
2018-12-23T04:06:02.167Z,2.08
2018-12-23T04:08:31.128Z,2.17
2018-12-23T04:11:00.330Z,2.17
2018-12-23T04:13:29.295Z,1.55
2018-12-23T04:15:58.139Z,1.90
2018-12-23T04:18:27.038Z,1.60
2018-12-23T04:20:55.829Z,2.08
2018-12-23T04:23:24.857Z,1.85
2018-12-23T04:25:53.543Z,1.40
2018-12-23T04:28:22.291Z,1.77
2018-12-23T04:30:51.280Z,1.70
2018-12-23T04:33:20.301Z,1.62
2018-12-23T04:35:49.292Z,1.80
2018-12-23T04:38:18.111Z,2.12
2018-12-23T04:40:46.718Z,1.70
2018-12-23T04:43:15.475Z,1.90
2018-12-23T04:45:44.550Z,2.00
2018-12-23T04:48:14.149Z,1.95
2018-12-23T04:50:43.479Z,1.45
2018-12-23T04:53:12.173Z,1.50
2018-12-23T04:55:41.117Z,1.72
2018-12-23T04:58:09.776Z,2.00
2018-12-23T05:00:38.510Z,2.00
2018-12-23T05:03:07.663Z,1.55
2018-12-23T05:05:36.441Z,1.67
2018-12-23T05:08:05.337Z,1.72
2018-12-23T05:10:34.023Z,1.85
2018-12-23T05:13:02.761Z,1.82
2018-12-23T05:15:31.768Z,1.70
2018-12-23T05:18:00.683Z,1.92
2018-12-23T05:20:29.465Z,1.60
2018-12-23T05:22:58.333Z,2.15
2018-12-23T05:25:27.117Z,2.35
2018-12-23T05:27:55.894Z,1.57
2018-12-23T05:30:24.551Z,2.20
2018-12-23T05:32:53.279Z,1.65
2018-12-23T05:35:22.217Z,1.70
2018-12-23T05:37:51.117Z,1.52
2018-12-23T05:40:19.914Z,1.52
2018-12-23T05:42:48.696Z,1.50
2018-12-23T05:45:17.545Z,1.65
2018-12-23T05:47:46.323Z,1.50
2018-12-23T05:50:15.011Z,1.90
2018-12-23T05:52:43.896Z,1.75
2018-12-23T05:55:12.548Z,1.55
2018-12-23T05:57:41.168Z,1.35
2018-12-23T06:00:09.859Z,1.42
2018-12-23T06:02:38.483Z,2.08
2018-12-23T06:05:07.197Z,1.70
2018-12-23T06:07:36.154Z,1.90
2018-12-23T06:10:05.331Z,1.90
2018-12-23T06:12:34.103Z,2.10
2018-12-23T06:15:03.587Z,2.08
2018-12-23T06:17:32.305Z,1.80
2018-12-23T06:20:00.993Z,1.72
2018-12-23T06:22:29.575Z,1.70
2018-12-23T06:24:58.253Z,1.55
2018-12-23T06:27:26.814Z,1.80
2018-12-23T06:29:55.686Z,2.12
2018-12-23T06:32:24.350Z,1.87
2018-12-23T06:34:53.257Z,1.67
2018-12-23T06:37:22.099Z,1.40
2018-12-23T06:39:50.837Z,1.50
2018-12-23T06:42:19.576Z,2.15
2018-12-23T06:44:48.273Z,1.47
2018-12-23T06:47:16.923Z,1.87
2018-12-23T06:49:45.558Z,2.02
2018-12-23T06:52:14.277Z,1.47
2018-12-23T06:54:43.215Z,1.82
2018-12-23T06:57:12.026Z,2.05
2018-12-23T06:59:40.691Z,2.22
2018-12-23T07:02:09.311Z,1.32
2018-12-23T07:04:38.088Z,1.95
2018-12-23T07:07:06.999Z,1.77
2018-12-23T07:09:35.630Z,1.55
2018-12-23T07:12:04.785Z,1.60
2018-12-23T07:14:33.474Z,1.85
2018-12-23T07:17:02.093Z,1.47
2018-12-23T07:19:30.810Z,1.72
2018-12-23T07:21:59.764Z,1.70
2018-12-23T07:24:28.736Z,1.87
2018-12-23T07:26:57.344Z,1.57
2018-12-23T07:29:26.008Z,1.42
2018-12-23T07:31:54.868Z,1.90
2018-12-23T07:34:23.560Z,1.65
2018-12-23T07:36:52.622Z,1.90
2018-12-23T07:39:21.544Z,1.45
2018-12-23T07:41:50.297Z,1.37
2018-12-23T07:44:18.915Z,1.67
2018-12-23T07:46:47.492Z,1.55
2018-12-23T07:49:16.208Z,1.60
2018-12-23T07:51:44.862Z,2.02
2018-12-23T07:54:13.820Z,1.85
2018-12-23T07:56:42.802Z,1.65
2018-12-23T07:59:11.696Z,1.67
2018-12-23T08:01:40.539Z,1.75
2018-12-23T08:04:09.684Z,2.27
2018-12-23T08:06:38.673Z,1.70
2018-12-23T08:09:07.742Z,1.55
2018-12-23T08:11:36.734Z,1.80
2018-12-23T08:14:05.410Z,2.35
2018-12-23T08:16:34.190Z,1.67
2018-12-23T08:19:03.003Z,1.42
2018-12-23T08:21:31.648Z,1.65
2018-12-23T08:24:00.400Z,1.98
2018-12-23T08:26:29.015Z,1.72
2018-12-23T08:28:57.795Z,2.77
2018-12-23T08:31:26.449Z,1.70
2018-12-23T08:33:55.116Z,1.67
2018-12-23T08:36:23.850Z,1.45
2018-12-23T08:38:52.612Z,1.70
2018-12-23T08:41:21.316Z,1.95
2018-12-23T08:43:50.261Z,2.22
2018-12-23T08:46:18.960Z,2.35
2018-12-23T08:48:47.618Z,2.10
2018-12-23T08:51:16.357Z,2.42
2018-12-23T08:53:45.017Z,1.65
2018-12-23T08:56:13.886Z,2.00
2018-12-23T08:58:42.772Z,2.17
2018-12-23T09:01:11.524Z,2.00
2018-12-23T09:03:40.334Z,2.08
2018-12-23T09:06:09.592Z,1.62
2018-12-23T09:08:38.565Z,1.92
2018-12-23T09:11:07.582Z,1.98
2018-12-23T09:13:36.353Z,2.05
2018-12-23T09:16:05.390Z,2.20
2018-12-23T09:18:34.292Z,1.92
2018-12-23T09:21:03.169Z,1.72
2018-12-23T09:23:31.934Z,2.20
2018-12-23T09:26:00.989Z,2.35
2018-12-23T09:28:30.694Z,1.98
2018-12-23T09:30:59.329Z,2.67
2018-12-23T09:33:28.109Z,2.15
2018-12-23T09:35:56.992Z,2.22
2018-12-23T09:38:25.898Z,2.35
2018-12-23T09:40:54.807Z,2.83
2018-12-23T09:43:23.552Z,1.98
2018-12-23T09:45:52.711Z,2.00
2018-12-23T09:48:21.660Z,2.27
2018-12-23T09:50:50.359Z,1.70
2018-12-23T09:53:19.073Z,2.22
2018-12-23T09:55:47.980Z,2.22
2018-12-23T09:58:16.961Z,2.05
2018-12-23T10:00:45.943Z,2.35
2018-12-23T10:03:14.754Z,2.27
2018-12-23T10:05:43.461Z,2.30
2018-12-23T10:08:12.421Z,2.65
2018-12-23T10:10:41.424Z,2.02
2018-12-23T10:13:10.423Z,4.30
2018-12-23T10:15:39.162Z,2.40
2018-12-23T10:18:07.962Z,2.33
2018-12-23T10:20:36.583Z,2.25
2018-12-23T10:23:06.504Z,3.30
2018-12-23T10:25:35.355Z,2.20
2018-12-23T10:28:04.228Z,3.22
2018-12-23T10:30:32.901Z,2.40
2018-12-23T10:33:01.843Z,2.70
2018-12-23T10:35:31.041Z,2.65
2018-12-23T10:38:00.009Z,2.70
2018-12-23T10:40:29.047Z,2.60
2018-12-23T10:42:57.776Z,2.77
2018-12-23T10:45:26.777Z,2.40
2018-12-23T10:47:55.690Z,3.08
2018-12-23T10:50:24.424Z,2.90
2018-12-23T10:52:53.120Z,3.10
2018-12-23T10:55:22.097Z,4.10
2018-12-23T10:57:50.812Z,3.08
2018-12-23T11:00:19.546Z,3.83
2018-12-23T11:02:48.404Z,4.67
2018-12-23T11:05:17.480Z,4.37
2018-12-23T11:07:46.452Z,5.03
2018-12-23T11:10:15.205Z,5.37
2018-12-23T11:12:44.054Z,4.15
2018-12-23T11:15:12.899Z,5.20
2018-12-23T11:17:41.672Z,5.25
2018-12-23T11:20:11.476Z,4.05
2018-12-23T11:22:40.464Z,4.65
2018-12-23T11:25:09.206Z,4.47
2018-12-23T11:27:38.213Z,3.87
2018-12-23T11:30:08.228Z,3.85
2018-12-23T11:32:37.269Z,3.60
2018-12-23T11:35:05.979Z,6.58
2018-12-23T11:37:34.744Z,3.75
2018-12-23T11:40:04.243Z,7.10
2018-12-23T11:42:33.136Z,6.05
2018-12-23T11:45:02.255Z,5.67
2018-12-23T11:47:31.229Z,6.62
2018-12-23T11:50:00.168Z,5.97
2018-12-23T11:52:29.175Z,6.53
2018-12-23T11:54:58.217Z,5.70
2018-12-23T11:57:27.199Z,4.53
2018-12-23T11:59:56.105Z,4.83
2018-12-23T12:02:25.249Z,4.65
2018-12-23T12:04:54.112Z,6.85
2018-12-23T12:07:22.964Z,5.55
2018-12-23T12:09:51.811Z,5.85
2018-12-23T12:12:20.617Z,4.22
2018-12-23T12:14:49.397Z,3.62
2018-12-23T12:17:18.169Z,4.08
2018-12-23T12:19:47.228Z,4.58
2018-12-23T12:22:16.180Z,4.05
2018-12-23T12:24:45.193Z,4.85
2018-12-23T12:27:14.340Z,4.42
2018-12-23T12:29:43.369Z,6.08
2018-12-23T12:32:12.223Z,5.17
2018-12-23T12:34:41.049Z,6.25
2018-12-23T12:37:09.795Z,5.78
2018-12-23T12:39:38.801Z,4.00
2018-12-23T12:42:07.873Z,4.03
2018-12-23T12:44:36.824Z,4.12
2018-12-23T12:47:05.828Z,6.25
2018-12-23T12:49:34.767Z,4.05
2018-12-23T12:52:04.286Z,3.30
2018-12-23T12:54:33.050Z,3.90
2018-12-23T12:57:01.832Z,3.45
2018-12-23T12:59:30.552Z,4.50
2018-12-23T13:01:59.320Z,4.42
2018-12-23T13:04:28.271Z,3.90
2018-12-23T13:06:57.091Z,3.25
2018-12-23T13:09:26.187Z,5.05
2018-12-23T13:11:54.841Z,4.10
2018-12-23T13:14:23.547Z,4.10
2018-12-23T13:16:52.345Z,3.05
2018-12-23T13:19:20.994Z,3.15
2018-12-23T13:21:49.957Z,3.85
2018-12-23T13:24:20.233Z,3.10
2018-12-23T13:26:49.254Z,4.25
2018-12-23T13:29:17.891Z,4.28
2018-12-23T13:31:46.806Z,3.27
2018-12-23T13:34:15.670Z,3.55
2018-12-23T13:36:44.545Z,3.05
2018-12-23T13:39:13.781Z,3.20
2018-12-23T13:41:50.795Z,2.98
2018-12-23T13:44:43.669Z,4.17
2018-12-23T13:47:23.473Z,5.35
2018-12-23T13:50:03.538Z,3.80
2018-12-23T13:52:42.299Z,4.15
2018-12-23T13:55:35.141Z,3.42
2018-12-23T13:58:48.099Z,4.85
2018-12-23T14:03:36.752Z,3.72
2018-12-23T14:06:35.290Z,4.12
2018-12-23T14:11:17.472Z,3.12
2018-12-23T14:13:46.214Z,6.17
2018-12-23T14:16:15.068Z,5.35
2018-12-23T14:18:44.045Z,4.72
2018-12-23T14:21:13.322Z,4.22
2018-12-23T14:23:42.182Z,4.75
2018-12-23T14:26:11.114Z,4.37
2018-12-23T14:28:39.762Z,4.25
2018-12-23T14:31:08.821Z,4.47
2018-12-23T14:33:37.934Z,4.12
2018-12-23T14:36:07.035Z,4.87
2018-12-23T14:38:36.216Z,3.90
2018-12-23T14:41:05.240Z,6.08
2018-12-23T14:43:34.083Z,5.35
2018-12-23T14:46:03.152Z,3.98
2018-12-23T14:48:32.205Z,4.22
2018-12-23T14:51:01.649Z,17.98
2018-12-23T14:53:30.380Z,48.65
2018-12-23T14:55:59.503Z,64.65
2018-12-23T14:58:28.319Z,60.73
2018-12-23T15:00:57.059Z,51.33
2018-12-23T15:03:26.051Z,53.42
2018-12-23T15:05:55.195Z,42.75
2018-12-23T15:08:24.240Z,41.23
2018-12-23T15:10:53.301Z,43.15
2018-12-23T15:13:22.240Z,39.42
2018-12-23T15:15:51.957Z,36.08
2018-12-23T15:18:20.833Z,35.13
2018-12-23T15:20:49.819Z,32.70
2018-12-23T15:23:18.683Z,29.57
2018-12-23T15:25:47.473Z,25.75
2018-12-23T15:28:16.423Z,26.48
2018-12-23T15:30:45.367Z,26.97
2018-12-23T15:33:14.420Z,25.35
2018-12-23T15:35:43.621Z,22.22
2018-12-23T15:38:12.747Z,20.15
2018-12-23T15:40:41.701Z,20.15
2018-12-23T15:43:10.735Z,18.90
2018-12-23T15:45:39.669Z,19.82
2018-12-23T15:48:08.471Z,18.12
2018-12-23T15:50:37.545Z,19.45
2018-12-23T15:53:06.524Z,16.62
2018-12-23T15:55:35.393Z,16.15
2018-12-23T15:58:04.427Z,19.05
2018-12-23T16:00:33.545Z,18.50
2018-12-23T16:03:02.427Z,18.70
2018-12-23T16:05:31.544Z,16.00
2018-12-23T16:08:00.461Z,17.80
2018-12-23T16:10:29.357Z,18.17
2018-12-23T16:12:58.323Z,16.05
2018-12-23T16:15:27.304Z,14.75
2018-12-23T16:17:56.305Z,15.18
2018-12-23T16:20:25.180Z,17.17
2018-12-23T16:22:54.069Z,15.93
2018-12-23T16:25:23.110Z,13.70
2018-12-23T16:27:52.022Z,13.60
2018-12-23T16:30:22.640Z,11.65
2018-12-23T16:32:51.538Z,12.82
2018-12-23T16:35:20.225Z,12.10
2018-12-23T16:37:48.905Z,13.78
2018-12-23T16:40:17.764Z,11.60
2018-12-23T16:42:46.450Z,11.28
2018-12-23T16:45:15.124Z,13.45
2018-12-23T16:47:43.797Z,12.53
2018-12-23T16:50:12.494Z,11.70
2018-12-23T16:52:41.207Z,11.10
2018-12-23T16:55:09.947Z,12.43
2018-12-23T16:57:38.676Z,11.83
2018-12-23T17:00:10.476Z,9.35
2018-12-23T17:02:39.176Z,10.30
2018-12-23T17:05:07.911Z,11.75
2018-12-23T17:07:36.605Z,9.18
2018-12-23T17:10:08.421Z,9.53
2018-12-23T17:12:36.501Z,8.65
2018-12-23T17:15:05.496Z,9.60
2018-12-23T17:17:34.150Z,9.35
2018-12-23T17:20:02.803Z,9.18
2018-12-23T17:22:31.473Z,7.87
2018-12-23T17:25:00.173Z,8.70
2018-12-23T17:27:28.883Z,9.08
2018-12-23T17:29:57.661Z,8.95
2018-12-23T17:32:26.461Z,8.58
2018-12-23T17:34:55.190Z,8.88
2018-12-23T17:37:23.886Z,9.38
2018-12-23T17:39:52.538Z,8.05
2018-12-23T17:42:21.201Z,8.73
2018-12-23T17:44:50.177Z,9.83
2018-12-23T17:47:18.820Z,8.15
2018-12-23T17:49:47.496Z,8.45
2018-12-23T17:52:23.208Z,8.20
2018-12-23T17:54:47.106Z,6.70
2018-12-23T17:57:16.128Z,7.03
2018-12-23T17:59:44.831Z,8.68
2018-12-23T18:02:14.130Z,7.10
2018-12-23T18:04:42.775Z,8.55
2018-12-23T18:07:11.666Z,7.10
2018-12-23T18:09:40.412Z,8.15
2018-12-23T18:12:09.621Z,6.35
2018-12-23T18:14:38.458Z,8.08
2018-12-23T18:17:07.149Z,7.47
2018-12-23T18:19:35.810Z,7.22
2018-12-23T18:22:04.939Z,6.37
2018-12-23T18:24:33.613Z,6.15
2018-12-23T18:27:02.495Z,6.87
2018-12-23T18:29:31.455Z,7.33
2018-12-23T18:32:00.535Z,5.78
2018-12-23T18:34:29.193Z,6.05
2018-12-23T18:36:58.158Z,6.85
2018-12-23T18:39:27.121Z,7.15
2018-12-23T18:41:56.064Z,6.17
2018-12-23T18:44:24.945Z,6.05
2018-12-23T18:46:54.624Z,6.50
2018-12-23T18:49:23.706Z,6.15
2018-12-23T18:51:52.868Z,8.05
2018-12-23T18:54:21.832Z,6.55
2018-12-23T18:56:53.317Z,5.42
2018-12-23T18:59:23.581Z,5.62
2018-12-23T19:02:00.712Z,4.45
2018-12-23T19:04:29.638Z,5.92
2018-12-23T19:06:58.513Z,5.47
2018-12-23T19:09:35.524Z,5.00
2018-12-23T19:14:19.134Z,6.25
2018-12-23T19:16:57.702Z,6.12
2018-12-23T19:19:39.683Z,4.78
2018-12-23T19:24:33.629Z,6.65
2018-12-23T19:27:31.723Z,4.65
2018-12-23T19:31:07.149Z,4.92
2018-12-23T19:34:24.607Z,5.25
2018-12-23T19:37:33.537Z,6.17
2018-12-23T19:40:38.524Z,4.15
2018-12-23T19:43:45.937Z,3.62
2018-12-23T19:46:53.361Z,4.25
2018-12-23T19:49:59.801Z,4.35
2018-12-23T19:53:08.834Z,4.10
2018-12-23T19:56:27.466Z,5.33
2018-12-23T19:59:39.888Z,5.20
2018-12-23T20:02:38.517Z,4.20
2018-12-23T20:05:50.383Z,4.53
2018-12-23T20:08:49.573Z,4.45
2018-12-23T20:12:11.443Z,13.98
2018-12-23T20:15:04.645Z,18.02
2018-12-23T20:18:24.185Z,28.07
2018-12-23T20:21:46.282Z,24.75
2018-12-23T20:24:39.431Z,21.62
2018-12-23T20:27:59.791Z,21.15
2018-12-23T20:31:05.225Z,17.37
2018-12-23T20:34:08.156Z,17.73
2018-12-23T20:37:14.098Z,17.12
2018-12-23T20:40:15.886Z,15.38
2018-12-23T20:43:27.921Z,14.38
2018-12-23T20:46:25.560Z,13.53
2018-12-23T20:49:38.276Z,12.78
2018-12-23T20:52:44.366Z,11.25
2018-12-23T20:55:57.320Z,10.90
2018-12-23T20:59:04.834Z,10.93
2018-12-23T21:02:10.256Z,9.10
2018-12-23T21:05:04.162Z,10.13
2018-12-23T21:08:10.271Z,9.50
2018-12-23T21:11:15.937Z,8.25
2018-12-23T21:14:23.209Z,8.33
2018-12-23T21:17:28.291Z,8.25
2018-12-23T21:20:34.549Z,7.03
2018-12-23T21:23:31.659Z,8.48
2018-12-23T21:27:01.422Z,6.90
2018-12-23T21:30:02.799Z,7.75
2018-12-23T21:33:09.012Z,6.60
2018-12-23T21:35:54.017Z,5.78
2018-12-23T21:39:19.601Z,6.85
2018-12-23T21:42:39.508Z,6.67
2018-12-23T21:45:50.686Z,6.42
2018-12-23T21:49:07.444Z,6.42
2018-12-23T21:52:14.238Z,30.32
2018-12-23T21:55:20.719Z,36.08
2018-12-23T21:58:46.181Z,29.52
2018-12-23T22:01:44.468Z,40.55
2018-12-23T22:05:15.967Z,47.15
2018-12-23T22:08:24.954Z,40.10
2018-12-23T22:11:33.187Z,35.98
2018-12-23T22:14:02.582Z,33.05
2018-12-23T22:16:32.070Z,32.80
2018-12-23T22:19:01.686Z,28.90
2018-12-23T22:21:31.207Z,27.98
2018-12-23T22:24:00.674Z,24.65
2018-12-23T22:26:30.055Z,22.98
2018-12-23T22:28:59.531Z,23.42
2018-12-23T22:31:28.958Z,21.35
2018-12-23T22:33:58.622Z,22.90
2018-12-23T22:36:28.033Z,19.50
2018-12-23T22:38:57.647Z,18.20
2018-12-23T22:41:29.933Z,15.68
2018-12-23T22:43:59.526Z,16.73
2018-12-23T22:46:28.953Z,15.72
2018-12-23T22:48:58.370Z,16.17
2018-12-23T22:51:28.328Z,15.18
2018-12-23T22:53:57.829Z,15.30
2018-12-23T22:56:27.285Z,14.83
2018-12-23T22:58:56.790Z,15.05
2018-12-23T23:01:26.441Z,13.80
2018-12-23T23:03:56.170Z,12.88
2018-12-23T23:06:25.630Z,12.40
2018-12-23T23:08:55.186Z,12.68
2018-12-23T23:11:24.798Z,11.00
2018-12-23T23:13:54.275Z,12.00
2018-12-23T23:16:23.658Z,11.55
2018-12-23T23:18:53.135Z,10.80
2018-12-23T23:21:22.645Z,10.05
2018-12-23T23:23:52.334Z,11.15
2018-12-23T23:26:21.714Z,10.18
2018-12-23T23:28:51.240Z,9.20
2018-12-23T23:31:20.844Z,9.58
2018-12-23T23:33:50.245Z,9.05
2018-12-23T23:36:19.745Z,8.30
2018-12-23T23:38:49.233Z,10.78
2018-12-23T23:41:18.628Z,7.90
2018-12-23T23:43:48.050Z,7.50
2018-12-23T23:46:17.614Z,8.30
2018-12-23T23:48:47.188Z,8.23
2018-12-23T23:51:16.616Z,8.80
2018-12-23T23:53:46.162Z,6.65
2018-12-23T23:56:15.544Z,6.85
2018-12-23T23:58:45.188Z,7.10
